Time;durP1;ratioP1;P1;durP2;ratioP2;P2;SDS_P1;SDS_P2;PMS_P1;PMS_P2;Temp;Humidity;BMP_temperature;BMP_pressure;BME280_temperature;BME280_humidity;BME280_pressure;Samples;Min_cycle;Max_cycle;Signal;HPM_P1;HPM_P2
2021/10/22 00:00:05;;;;;;;;;;;14.40;97.20;14.60;99669.00;;;;338542;28;95385;-92
2021/10/22 00:00:16;;;;;;;;;;;14.40;97.30;14.70;99676.00;;;;340524;28;83405;-92
2021/10/22 00:00:29;;;;;;;;;;;14.30;97.20;14.70;99668.00;;;;336756;28;95931;-92
2021/10/22 00:00:41;;;;;;;;;;;14.40;97.10;14.70;99673.00;;;;337636;28;83478;-91
2021/10/22 00:00:53;;;;;;;;;;;14.40;97.20;14.90;99665.00;;;;337892;28;96136;-92
2021/10/22 00:01:05;;;;;;;;;;;14.40;97.40;14.80;99671.00;;;;340445;28;82477;-93
2021/10/22 00:01:17;;;;;;;;;;;14.40;97.30;14.80;99676.00;;;;339222;28;97204;-92
2021/10/22 00:01:29;;;;;;;;;;;14.40;97.30;14.80;99671.00;;;;343070;28;83498;-92
2021/10/22 00:01:41;;;;;;;;;;;14.40;97.40;14.90;99677.00;;;;339733;28;96417;-92
2021/10/22 00:01:53;;;;;;;;;;;14.40;97.30;14.90;99669.00;;;;339222;28;83441;-92
2021/10/22 00:02:05;;;;;;;;;;;14.40;97.30;14.80;99669.00;;;;337219;28;96094;-92
2021/10/22 00:02:17;;;;;;;;;;;14.40;97.50;14.80;99672.00;;;;338064;28;83012;-92
2021/10/22 00:02:29;;;;;;;;;;;14.40;97.50;14.70;99671.00;;;;336013;28;96585;-92
2021/10/22 00:02:41;;;;;;;;;;;14.40;97.50;14.70;99673.00;;;;340741;28;83468;-92
2021/10/22 00:02:53;;;;;;;;;;;14.40;97.40;14.70;99664.00;;;;338637;28;96283;-92
2021/10/22 00:03:06;;;;;;;;;;;14.40;97.50;14.70;99677.00;;;;339375;28;83503;-92
2021/10/22 00:03:17;;;;;;;;;;;14.40;97.40;14.70;99669.00;;;;340101;28;95279;-92
2021/10/22 00:03:29;;;;;;;;;;;14.40;97.30;14.70;99669.00;;;;338161;28;82334;-92
2021/10/22 00:03:41;;;;;;;;;;;14.40;97.20;14.80;99671.00;;;;338202;28;96735;-92
2021/10/22 00:03:53;;;;;;;;;;;14.40;97.20;14.70;99671.00;;;;338915;28;83497;-92
2021/10/22 00:04:05;;;;;;;;;;;14.40;97.20;14.70;99666.00;;;;337557;28;95473;-92
2021/10/22 00:04:16;;;;;;;;;;;14.50;97.40;14.70;99676.00;;;;338084;28;82442;-92
2021/10/22 00:04:28;;;;;;;;;;;14.40;97.30;14.70;99666.00;;;;337321;28;96697;-92
2021/10/22 00:04:40;;;;;;;;;;;14.40;97.30;14.70;99673.00;;;;340804;28;83344;-92
2021/10/22 00:04:52;;;;;;;;;;;14.40;97.20;14.70;99671.00;;;;339961;28;95447;-92
2021/10/22 00:05:04;;;;;;;;;;;14.40;97.20;14.80;99661.00;;;;339386;28;83212;-92
2021/10/22 00:05:16;;;;;;;;;;;14.40;97.30;14.70;99676.00;;;;341346;28;96697;-92
2021/10/22 00:05:28;;;;;;;;;;;14.40;97.40;14.70;99667.00;;;;340767;28;83284;-92
2021/10/22 00:05:40;;;;;;;;;;;14.40;97.50;14.70;99666.00;;;;341137;28;95376;-92
2021/10/22 00:05:52;;;;;;;;;;;14.40;97.50;14.70;99667.00;;;;340653;28;83492;-91
2021/10/22 00:06:04;;;;;;;;;;;14.40;97.50;14.70;99673.00;;;;338727;28;96732;-92
2021/10/22 00:06:16;;;;;;;;;;;14.40;97.50;14.70;99669.00;;;;340689;28;83482;-92
2021/10/22 00:06:27;;;;;;;;;;;14.40;97.60;14.70;99672.00;;;;337209;28;96422;-93
2021/10/22 00:06:39;;;;;;;;;;;14.40;97.40;14.70;99665.00;;;;340825;28;83369;-91
2021/10/22 00:06:55;;;;;;;;;;;14.40;97.20;14.70;99669.00;;;;339624;28;94604;-93
2021/10/22 00:07:07;;;;;;;;;;;14.40;97.30;14.70;99673.00;;;;338119;28;83328;-91
2021/10/22 00:07:19;;;;;;;;;;;14.40;97.30;14.70;99670.00;;;;337373;28;96719;-92
2021/10/22 00:07:31;;;;;;;;;;;14.40;97.20;14.70;99664.00;;;;340632;28;83601;-92
2021/10/22 00:07:43;;;;;;;;;;;14.40;97.20;14.70;99664.00;;;;339978;28;96743;-92
2021/10/22 00:07:55;;;;;;;;;;;14.40;97.60;14.70;99663.00;;;;339480;28;83385;-92
2021/10/22 00:08:07;;;;;;;;;;;14.40;97.70;14.70;99667.00;;;;337392;28;96169;-92
2021/10/22 00:08:19;;;;;;;;;;;14.40;97.50;14.70;99662.00;;;;336794;28;82407;-93
2021/10/22 00:08:30;;;;;;;;;;;14.40;97.50;14.60;99659.00;;;;338695;28;95420;-92
2021/10/22 00:08:43;;;;;;;;;;;14.40;97.60;14.60;99671.00;;;;338075;28;83256;-92
2021/10/22 00:08:55;;;;;;;;;;;14.40;97.70;14.70;99672.00;;;;338650;28;94902;-92
2021/10/22 00:09:07;;;;;;;;;;;14.40;97.60;14.70;99669.00;;;;342050;28;83458;-92
2021/10/22 00:09:18;;;;;;;;;;;14.40;97.50;14.70;99675.00;;;;338588;28;95885;-93
2021/10/22 00:09:30;;;;;;;;;;;14.40;97.50;14.70;99673.00;;;;339319;28;83499;-93
2021/10/22 00:09:42;;;;;;;;;;;14.40;97.70;14.70;99673.00;;;;339956;28;96778;-92
2021/10/22 00:09:55;;;;;;;;;;;14.40;97.50;14.70;99675.00;;;;340289;28;83453;-92
2021/10/22 00:10:08;;;;;;;;;;;14.40;97.60;14.70;99671.00;;;;337435;28;96267;-92
2021/10/22 00:10:20;;;;;;;;;;;14.40;97.70;14.70;99676.00;;;;340478;28;83578;-92
2021/10/22 00:10:31;;;;;;;;;;;14.40;97.60;14.80;99671.00;;;;338646;28;96862;-92
2021/10/22 00:10:43;;;;;;;;;;;14.40;97.50;14.70;99671.00;;;;339441;28;83316;-92
2021/10/22 00:10:55;;;;;;;;;;;14.40;97.60;14.70;99671.00;;;;337398;28;94579;-92
2021/10/22 00:11:07;;;;;;;;;;;14.40;97.60;14.70;99657.00;;;;337895;28;83604;-92
2021/10/22 00:11:19;;;;;;;;;;;14.40;97.70;14.60;99668.00;;;;337357;28;96825;-92
2021/10/22 00:11:30;;;;;;;;;;;14.40;97.80;14.60;99670.00;;;;340768;28;83531;-92
2021/10/22 00:11:46;;;;;;;;;;;14.40;97.80;14.60;99668.00;;;;338721;28;95839;-92
2021/10/22 00:11:58;;;;;;;;;;;14.40;97.90;14.60;99671.00;;;;339450;28;83418;-92
2021/10/22 00:12:10;;;;;;;;;;;14.40;98.00;14.70;99668.00;;;;337365;28;94807;-92
2021/10/22 00:12:22;;;;;;;;;;;14.40;97.90;14.80;99664.00;;;;339313;28;83486;-92
2021/10/22 00:12:34;;;;;;;;;;;14.40;97.80;14.90;99664.00;;;;339926;28;97260;-92
2021/10/22 00:12:46;;;;;;;;;;;14.40;97.80;14.90;99668.00;;;;341431;28;83687;-92
2021/10/22 00:12:58;;;;;;;;;;;14.40;97.80;14.90;99675.00;;;;338736;28;95190;-92
2021/10/22 00:13:10;;;;;;;;;;;14.50;97.70;14.80;99665.00;;;;340747;28;82527;-92
2021/10/22 00:13:22;;;;;;;;;;;14.50;97.70;14.80;99676.00;;;;340033;28;96392;-92
2021/10/22 00:13:33;;;;;;;;;;;14.50;97.80;14.70;99667.00;;;;339402;28;82612;-92
2021/10/22 00:13:45;;;;;;;;;;;14.50;98.00;14.70;99668.00;;;;341662;28;95881;-93
2021/10/22 00:13:57;;;;;;;;;;;14.50;98.00;14.60;99665.00;;;;340855;28;83759;-91
2021/10/22 00:14:10;;;;;;;;;;;14.50;98.00;14.60;99659.00;;;;338772;28;94254;-92
2021/10/22 00:14:22;;;;;;;;;;;14.50;98.00;14.60;99660.00;;;;339389;28;82628;-92
2021/10/22 00:14:34;;;;;;;;;;;14.50;98.20;14.60;99662.00;;;;338689;28;95388;-92
2021/10/22 00:14:45;;;;;;;;;;;14.50;98.30;14.60;99667.00;;;;340804;28;82489;-92
2021/10/22 00:14:57;;;;;;;;;;;14.50;98.30;14.60;99665.00;;;;340119;28;96136;-92
2021/10/22 00:15:09;;;;;;;;;;;14.50;98.30;14.60;99663.00;;;;337994;28;83506;-92
2021/10/22 00:15:21;;;;;;;;;;;14.40;98.30;14.60;99667.00;;;;337423;28;95533;-93
2021/10/22 00:15:33;;;;;;;;;;;14.40;98.30;14.60;99660.00;;;;338064;28;83397;-92
2021/10/22 00:15:45;;;;;;;;;;;14.40;98.20;14.60;99663.00;;;;337765;28;95581;-91
2021/10/22 00:15:57;;;;;;;;;;;14.40;98.20;14.70;99668.00;;;;340748;28;82555;-92
2021/10/22 00:16:09;;;;;;;;;;;14.40;98.10;14.60;99669.00;;;;338781;28;95594;-92
2021/10/22 00:16:21;;;;;;;;;;;14.40;98.10;14.60;99656.00;;;;339339;28;83456;-92
2021/10/22 00:16:33;;;;;;;;;;;14.40;98.20;14.60;99668.00;;;;335983;28;96944;-92
2021/10/22 00:16:45;;;;;;;;;;;14.40;98.20;14.70;99664.00;;;;339218;28;82482;-93
2021/10/22 00:16:57;;;;;;;;;;;14.40;98.00;14.70;99657.00;;;;338661;28;96416;-92
2021/10/22 00:17:10;;;;;;;;;;;14.40;98.00;14.80;99667.00;;;;337870;28;84305;-92
2021/10/22 00:17:22;;;;;;;;;;;14.40;97.90;14.90;99665.00;;;;338618;28;96433;-93
2021/10/22 00:17:36;;;;;;;;;;;14.50;98.00;14.90;99669.00;;;;342066;28;83352;-91
2021/10/22 00:17:47;;;;;;;;;;;14.50;98.00;15.00;99666.00;;;;341448;28;94208;-92
2021/10/22 00:17:59;;;;;;;;;;;14.50;98.00;15.00;99660.00;;;;340824;28;83296;-92
2021/10/22 00:18:11;;;;;;;;;;;14.50;98.10;15.10;99666.00;;;;340055;28;96392;-92
2021/10/22 00:18:24;;;;;;;;;;;14.50;98.10;15.10;99662.00;;;;340846;28;83473;-92
2021/10/22 00:18:36;;;;;;;;;;;14.50;98.10;15.00;99666.00;;;;340062;28;96233;-92
2021/10/22 00:18:48;;;;;;;;;;;14.50;98.10;15.00;99660.00;;;;339287;28;82663;-92
2021/10/22 00:19:00;;;;;;;;;;;14.60;97.90;15.00;99661.00;;;;341474;28;94138;-92
2021/10/22 00:19:12;;;;;;;;;;;14.60;98.00;14.90;99669.00;;;;340685;28;83538;-92
2021/10/22 00:19:23;;;;;;;;;;;14.50;98.00;15.00;99664.00;;;;341459;28;96049;-92
2021/10/22 00:19:36;;;;;;;;;;;14.60;97.90;14.90;99664.00;;;;340670;28;82397;-92
2021/10/22 00:19:47;;;;;;;;;;;14.60;97.90;14.90;99666.00;;;;340617;28;96683;-92
2021/10/22 00:19:59;;;;;;;;;;;14.60;97.90;14.80;99661.00;;;;339505;28;82475;-92
2021/10/22 00:20:11;;;;;;;;;;;14.50;98.20;14.80;99660.00;;;;338688;28;96549;-92
2021/10/22 00:20:23;;;;;;;;;;;14.50;98.20;14.80;99663.00;;;;339506;28;83430;-91
2021/10/22 00:20:35;;;;;;;;;;;14.50;98.10;14.70;99669.00;;;;337376;28;96586;-92
2021/10/22 00:20:48;;;;;;;;;;;14.50;98.20;14.70;99670.00;;;;342218;28;82428;-92
2021/10/22 00:20:59;;;;;;;;;;;14.50;98.20;14.60;99667.00;;;;341355;28;95768;-92
2021/10/22 00:21:11;;;;;;;;;;;14.50;98.30;14.70;99663.00;;;;339471;28;82480;-92
2021/10/22 00:21:23;;;;;;;;;;;14.50;98.30;14.70;99662.00;;;;340094;28;95098;-92
2021/10/22 00:21:35;;;;;;;;;;;14.50;98.20;14.80;99676.00;;;;339389;28;83349;-91
2021/10/22 00:21:47;;;;;;;;;;;14.50;98.10;14.80;99671.00;;;;340584;28;96598;-92
2021/10/22 00:21:59;;;;;;;;;;;14.50;98.30;14.90;99669.00;;;;339469;28;83516;-92
2021/10/22 00:22:12;;;;;;;;;;;14.50;97.90;14.90;99665.00;;;;338706;28;95535;-92
2021/10/22 00:22:23;;;;;;;;;;;14.50;97.90;14.90;99673.00;;;;340830;28;82359;-92
2021/10/22 00:22:36;;;;;;;;;;;14.50;97.90;14.90;99669.00;;;;341227;28;97302;-92
2021/10/22 00:22:48;;;;;;;;;;;14.60;97.90;14.70;99670.00;;;;339419;28;82477;-92
2021/10/22 00:23:00;;;;;;;;;;;14.50;98.10;14.70;99666.00;;;;340137;28;95161;-91
2021/10/22 00:23:12;;;;;;;;;;;14.50;98.10;14.70;99669.00;;;;339490;28;83249;-92
2021/10/22 00:23:24;;;;;;;;;;;14.50;98.10;14.80;99664.00;;;;338761;28;96754;-92
2021/10/22 00:23:36;;;;;;;;;;;14.50;98.10;14.90;99668.00;;;;339411;28;83336;-92
2021/10/22 00:23:48;;;;;;;;;;;14.50;98.00;14.90;99669.00;;;;338616;28;96826;-92
2021/10/22 00:23:59;;;;;;;;;;;14.50;97.90;14.90;99665.00;;;;340834;28;83394;-92
2021/10/22 00:24:11;;;;;;;;;;;14.50;97.90;14.90;99668.00;;;;338618;28;96836;-92
2021/10/22 00:24:23;;;;;;;;;;;14.50;97.90;14.80;99665.00;;;;341888;28;82514;-92
2021/10/22 00:24:36;;;;;;;;;;;14.50;97.90;14.90;99668.00;;;;340120;28;96792;-92
2021/10/22 00:24:48;;;;;;;;;;;14.50;97.90;14.90;99674.00;;;;340438;28;83554;-92
2021/10/22 00:24:59;;;;;;;;;;;14.50;97.80;15.00;99669.00;;;;339978;28;95994;-91
2021/10/22 00:25:11;;;;;;;;;;;14.50;97.90;15.00;99668.00;;;;340778;28;83413;-92
2021/10/22 00:25:23;;;;;;;;;;;14.60;97.80;14.90;99678.00;;;;338776;28;95357;-92
2021/10/22 00:25:35;;;;;;;;;;;14.60;97.80;14.90;99672.00;;;;339253;28;83280;-92
2021/10/22 00:25:48;;;;;;;;;;;14.50;97.90;14.90;99669.00;;;;337272;28;96117;-92
2021/10/22 00:25:59;;;;;;;;;;;14.60;97.90;14.90;99675.00;;;;336921;28;82448;-93
2021/10/22 00:26:11;;;;;;;;;;;14.60;97.90;14.90;99671.00;;;;336097;28;97052;-92
2021/10/22 00:26:23;;;;;;;;;;;14.60;97.80;14.80;99668.00;;;;340824;28;82457;-92
2021/10/22 00:26:35;;;;;;;;;;;14.60;97.90;14.80;99677.00;;;;341239;28;95223;-92
2021/10/22 00:26:47;;;;;;;;;;;14.60;98.00;14.70;99673.00;;;;342089;28;83500;-92
2021/10/22 00:26:59;;;;;;;;;;;14.60;98.20;14.70;99673.00;;;;338639;28;96424;-91
2021/10/22 00:27:11;;;;;;;;;;;14.50;98.20;14.80;99675.00;;;;339435;28;82449;-92
2021/10/22 00:27:23;;;;;;;;;;;14.50;98.00;14.80;99672.00;;;;339984;28;96844;-92
2021/10/22 00:27:35;;;;;;;;;;;14.50;98.00;14.70;99667.00;;;;339444;28;83240;-92
2021/10/22 00:27:47;;;;;;;;;;;14.50;98.10;14.60;99675.00;;;;339905;28;95780;-92
2021/10/22 00:27:58;;;;;;;;;;;14.50;98.10;14.60;99666.00;;;;340734;28;83437;-93
2021/10/22 00:28:10;;;;;;;;;;;14.50;98.30;14.50;99682.00;;;;340112;28;96508;-92
2021/10/22 00:28:22;;;;;;;;;;;14.50;98.30;14.50;99676.00;;;;342133;28;83443;-92
2021/10/22 00:28:34;;;;;;;;;;;14.50;98.20;14.50;99676.00;;;;338469;28;95751;-93
2021/10/22 00:28:46;;;;;;;;;;;14.50;98.10;14.60;99675.00;;;;338502;28;83510;-91
2021/10/22 00:28:58;;;;;;;;;;;14.50;98.10;14.70;99672.00;;;;341335;28;96356;-92
2021/10/22 00:29:10;;;;;;;;;;;14.50;98.10;14.70;99666.00;;;;340847;28;82431;-93
2021/10/22 00:29:21;;;;;;;;;;;14.40;98.10;14.70;99677.00;;;;339993;28;96876;-92
2021/10/22 00:29:33;;;;;;;;;;;14.50;98.00;14.70;99677.00;;;;339406;28;83421;-92
2021/10/22 00:29:45;;;;;;;;;;;14.50;98.00;14.80;99674.00;;;;340001;28;96745;-92
2021/10/22 00:29:58;;;;;;;;;;;14.50;98.00;14.90;99673.00;;;;339459;28;82561;-92
2021/10/22 00:30:10;;;;;;;;;;;14.50;97.90;14.90;99666.00;;;;339723;28;96016;-92
2021/10/22 00:30:22;;;;;;;;;;;14.50;97.90;14.80;99670.00;;;;342143;28;82678;-93
2021/10/22 00:30:34;;;;;;;;;;;14.50;97.80;14.80;99663.00;;;;341359;28;96736;-92
2021/10/22 00:30:46;;;;;;;;;;;14.50;97.90;14.80;99670.00;;;;342133;28;82542;-92
2021/10/22 00:30:58;;;;;;;;;;;14.50;97.80;14.70;99676.00;;;;339987;28;95917;-93
2021/10/22 00:31:11;;;;;;;;;;;14.50;97.80;14.60;99664.00;;;;339486;28;83420;-92
2021/10/22 00:31:23;;;;;;;;;;;14.50;97.70;14.50;99671.00;;;;340038;28;95583;-92
2021/10/22 00:31:35;;;;;;;;;;;14.50;97.70;14.40;99685.00;;;;340577;28;84016;-92
2021/10/22 00:31:47;;;;;;;;;;;14.50;97.70;14.40;99678.00;;;;338707;28;94880;-92
2021/10/22 00:31:59;;;;;;;;;;;14.50;97.70;14.40;99677.00;;;;339438;28;83255;-92
2021/10/22 00:32:10;;;;;;;;;;;14.40;97.60;14.40;99680.00;;;;340036;28;95439;-92
2021/10/22 00:32:22;;;;;;;;;;;14.40;97.60;14.40;99673.00;;;;339414;28;82591;-92
2021/10/22 00:32:34;;;;;;;;;;;14.40;97.60;14.40;99671.00;;;;338446;28;94483;-92
2021/10/22 00:32:46;;;;;;;;;;;14.40;97.50;14.40;99676.00;;;;338112;28;83355;-92
2021/10/22 00:32:58;;;;;;;;;;;14.40;97.60;14.40;99671.00;;;;340076;28;94953;-92
2021/10/22 00:33:10;;;;;;;;;;;14.40;97.70;14.30;99670.00;;;;339428;28;82526;-92
2021/10/22 00:33:22;;;;;;;;;;;14.40;97.70;14.30;99673.00;;;;339977;28;95361;-92
2021/10/22 00:33:34;;;;;;;;;;;14.30;97.70;14.20;99679.00;;;;340771;28;82472;-92
2021/10/22 00:33:46;;;;;;;;;;;14.30;97.70;14.30;99676.00;;;;339943;28;96745;-92
2021/10/22 00:33:58;;;;;;;;;;;14.30;97.60;14.30;99674.00;;;;340798;28;83410;-92
2021/10/22 00:34:09;;;;;;;;;;;14.30;97.70;14.30;99667.00;;;;338711;28;96871;-92
2021/10/22 00:34:21;;;;;;;;;;;14.30;97.70;14.30;99669.00;;;;338144;28;83513;-92
2021/10/22 00:34:33;;;;;;;;;;;14.30;97.70;14.50;99673.00;;;;337458;28;95245;-92
2021/10/22 00:34:45;;;;;;;;;;;14.40;97.70;14.50;99670.00;;;;340696;28;83274;-92
2021/10/22 00:34:57;;;;;;;;;;;14.30;97.70;14.50;99671.00;;;;339931;28;95563;-92
2021/10/22 00:35:09;;;;;;;;;;;14.30;97.60;14.50;99672.00;;;;340791;28;83469;-92
2021/10/22 00:35:21;;;;;;;;;;;14.30;97.60;14.60;99667.00;;;;338666;28;95971;-92
2021/10/22 00:35:33;;;;;;;;;;;14.30;97.60;14.50;99674.00;;;;342091;28;83331;-92
2021/10/22 00:35:45;;;;;;;;;;;14.30;97.60;14.50;99669.00;;;;338703;28;96327;-92
2021/10/22 00:35:57;;;;;;;;;;;14.30;97.70;14.40;99665.00;;;;340543;28;83403;-92
2021/10/22 00:36:11;;;;;;;;;;;14.30;97.70;14.40;99671.00;;;;341376;28;96337;-91
2021/10/22 00:36:23;;;;;;;;;;;14.30;97.70;14.30;99674.00;;;;342190;28;82483;-91
2021/10/22 00:36:36;;;;;;;;;;;14.30;97.80;14.30;99672.00;;;;338690;28;96949;-92
2021/10/22 00:36:48;;;;;;;;;;;14.30;97.90;14.30;99665.00;;;;339426;28;83347;-92
2021/10/22 00:37:00;;;;;;;;;;;14.30;98.00;14.20;99670.00;;;;339998;28;96617;-92
2021/10/22 00:37:12;;;;;;;;;;;14.30;98.10;14.20;99661.00;;;;342188;28;83365;-92
2021/10/22 00:37:24;;;;;;;;;;;14.30;98.00;14.30;99663.00;;;;342687;28;95571;-92
2021/10/22 00:37:36;;;;;;;;;;;14.20;98.00;14.30;99660.00;;;;339424;28;83306;-92
2021/10/22 00:37:48;;;;;;;;;;;14.20;98.00;14.30;99668.00;;;;339847;28;96394;-92
2021/10/22 00:38:00;;;;;;;;;;;14.20;98.00;14.20;99661.00;;;;343534;28;82232;-93
2021/10/22 00:38:12;;;;;;;;;;;14.20;98.00;14.20;99662.00;;;;338716;28;95485;-92
2021/10/22 00:38:24;;;;;;;;;;;14.20;98.10;14.20;99659.00;;;;340694;28;83332;-92
2021/10/22 00:38:56;;;;;;;;;;;14.20;98.10;14.20;99667.00;;;;339655;28;96859;-91
2021/10/22 00:39:09;;;;;;;;;;;14.20;98.20;14.20;99661.00;;;;342176;28;82447;-92
2021/10/22 00:39:21;;;;;;;;;;;14.10;98.20;14.30;99664.00;;;;341423;28;95552;-92
2021/10/22 00:39:33;;;;;;;;;;;14.10;98.10;14.20;99665.00;;;;340815;28;83247;-92
2021/10/22 00:39:45;;;;;;;;;;;14.10;98.20;14.30;99649.00;;;;340137;28;95615;-92
2021/10/22 00:39:57;;;;;;;;;;;14.10;98.10;14.40;99663.00;;;;338130;28;83489;-92
2021/10/22 00:40:11;;;;;;;;;;;14.10;98.00;14.50;99667.00;;;;339733;28;95729;-92
2021/10/22 00:40:24;;;;;;;;;;;14.20;98.10;14.60;99659.00;;;;339417;28;83445;-92
2021/10/22 00:40:36;;;;;;;;;;;14.20;98.10;14.60;99661.00;;;;337437;28;96125;-92
2021/10/22 00:40:48;;;;;;;;;;;14.10;98.10;14.50;99657.00;;;;338831;28;82553;-92
2021/10/22 00:41:00;;;;;;;;;;;14.20;98.00;14.40;99667.00;;;;339526;28;95604;-92
2021/10/22 00:41:11;;;;;;;;;;;14.20;98.10;14.40;99661.00;;;;342160;28;82421;-92
2021/10/22 00:41:23;;;;;;;;;;;14.20;98.20;14.50;99662.00;;;;338718;28;96387;-92
2021/10/22 00:41:36;;;;;;;;;;;14.20;98.20;14.50;99657.00;;;;338073;28;83481;-92
2021/10/22 00:41:49;;;;;;;;;;;14.20;98.20;14.60;99659.00;;;;341272;28;96841;-92
2021/10/22 00:42:00;;;;;;;;;;;14.20;98.20;14.50;99661.00;;;;340727;28;83483;-92
2021/10/22 00:42:12;;;;;;;;;;;14.20;98.40;14.50;99652.00;;;;340072;28;96722;-91
2021/10/22 00:42:24;;;;;;;;;;;14.20;98.60;14.50;99654.00;;;;340805;28;83437;-93
2021/10/22 00:42:36;;;;;;;;;;;14.10;98.50;14.50;99652.00;;;;338610;28;96964;-92
2021/10/22 00:42:48;;;;;;;;;;;14.10;98.40;14.60;99649.00;;;;340819;28;82564;-92
2021/10/22 00:43:00;;;;;;;;;;;14.10;98.30;14.50;99651.00;;;;339944;28;95851;-92
2021/10/22 00:43:13;;;;;;;;;;;14.10;98.20;14.50;99657.00;;;;342117;28;83440;-92
2021/10/22 00:43:29;;;;;;;;;;;14.10;98.10;14.50;99652.00;;;;339875;28;95091;-91
2021/10/22 00:43:41;;;;;;;;;;;14.20;98.20;14.50;99662.00;;;;339414;28;83530;-92
2021/10/22 00:43:53;;;;;;;;;;;14.10;98.30;14.60;99663.00;;;;341338;28;95937;-92
2021/10/22 00:44:05;;;;;;;;;;;14.20;98.40;14.60;99659.00;;;;340893;28;82398;-91
2021/10/22 00:44:17;;;;;;;;;;;14.20;98.40;14.60;99655.00;;;;337270;28;96963;-92
2021/10/22 00:44:29;;;;;;;;;;;14.20;98.40;14.50;99650.00;;;;340783;28;83428;-92
2021/10/22 00:44:41;;;;;;;;;;;14.10;98.30;14.50;99656.00;;;;340049;28;96354;-92
2021/10/22 00:44:53;;;;;;;;;;;14.20;98.20;14.40;99661.00;;;;339403;28;82578;-92
2021/10/22 00:45:08;;;;;;;;;;;14.20;98.20;14.50;99659.00;;;;340076;28;96731;-92
2021/10/22 00:45:20;;;;;;;;;;;14.10;98.20;14.60;99659.00;;;;339447;28;83282;-91
2021/10/22 00:45:35;;;;;;;;;;;14.20;98.20;14.60;99659.00;;;;338678;28;96188;-91
2021/10/22 00:45:50;;;;;;;;;;;14.20;98.10;14.60;99654.00;;;;340245;28;83523;-92
2021/10/22 00:46:02;;;;;;;;;;;14.20;98.10;14.60;99663.00;;;;340036;28;96064;-92
2021/10/22 00:46:14;;;;;;;;;;;14.20;98.00;14.50;99650.00;;;;341978;28;83491;-92
2021/10/22 00:46:30;;;;;;;;;;;14.20;98.00;14.50;99657.00;;;;341331;28;95621;-91
2021/10/22 00:46:43;;;;;;;;;;;14.20;98.20;14.50;99665.00;;;;339430;28;82671;-92
2021/10/22 00:46:55;;;;;;;;;;;14.10;98.10;14.50;99664.00;;;;339939;28;96728;-91
2021/10/22 00:47:09;;;;;;;;;;;14.20;98.10;14.50;99659.00;;;;339552;28;82488;-92
2021/10/22 00:47:20;;;;;;;;;;;14.10;98.00;14.50;99658.00;;;;338730;28;95303;-91
2021/10/22 00:47:32;;;;;;;;;;;14.10;98.10;14.40;99654.00;;;;342028;28;83368;-93
2021/10/22 00:47:44;;;;;;;;;;;14.10;98.30;14.50;99655.00;;;;340078;28;93770;-92
2021/10/22 00:47:56;;;;;;;;;;;14.10;98.20;14.50;99657.00;;;;340781;28;83283;-92
2021/10/22 00:48:08;;;;;;;;;;;14.20;98.10;14.40;99656.00;;;;338606;28;96631;-92
2021/10/22 00:48:20;;;;;;;;;;;14.10;98.20;14.40;99657.00;;;;340935;28;82556;-92
2021/10/22 00:48:31;;;;;;;;;;;14.10;98.10;14.40;99657.00;;;;340017;28;95910;-92
2021/10/22 00:48:44;;;;;;;;;;;14.10;98.30;14.30;99660.00;;;;342028;28;83502;-92
2021/10/22 00:48:57;;;;;;;;;;;14.10;98.50;14.30;99669.00;;;;339977;28;96759;-92
2021/10/22 00:49:09;;;;;;;;;;;14.10;98.50;14.30;99654.00;;;;340825;28;83430;-92
2021/10/22 00:49:21;;;;;;;;;;;14.10;98.50;14.20;99653.00;;;;337421;28;96485;-91
2021/10/22 00:49:33;;;;;;;;;;;14.10;98.50;14.40;99662.00;;;;342189;28;82452;-92
2021/10/22 00:49:45;;;;;;;;;;;14.10;98.50;14.40;99662.00;;;;340051;28;95957;-92
2021/10/22 00:49:57;;;;;;;;;;;14.10;98.40;14.40;99656.00;;;;340762;28;83239;-91
2021/10/22 00:50:09;;;;;;;;;;;14.10;98.30;14.40;99667.00;;;;340141;28;95570;-92
2021/10/22 00:50:20;;;;;;;;;;;14.10;98.30;14.40;99665.00;;;;340717;28;83424;-92
2021/10/22 00:50:37;;;;;;;;;;;14.10;98.40;14.30;99673.00;;;;341351;28;96603;-92
2021/10/22 00:50:50;;;;;;;;;;;14.10;98.40;14.30;99666.00;;;;339458;28;82506;-91
2021/10/22 00:51:02;;;;;;;;;;;14.10;98.40;14.40;99667.00;;;;340012;28;95638;-91
2021/10/22 00:51:14;;;;;;;;;;;14.10;98.40;14.30;99660.00;;;;340807;28;83325;-92
2021/10/22 00:51:27;;;;;;;;;;;14.10;98.40;14.30;99659.00;;;;341406;28;96929;-91
2021/10/22 00:51:39;;;;;;;;;;;14.10;98.60;14.30;99661.00;;;;340721;28;83845;-92
2021/10/22 00:51:50;;;;;;;;;;;14.10;98.70;14.30;99668.00;;;;340084;28;95061;-91
2021/10/22 00:52:03;;;;;;;;;;;14.00;98.90;14.40;99656.00;;;;337954;28;82497;-92
2021/10/22 00:52:15;;;;;;;;;;;14.10;98.60;14.30;99661.00;;;;338672;28;96651;-92
2021/10/22 00:52:27;;;;;;;;;;;14.00;98.70;14.30;99649.00;;;;342145;28;82465;-91
2021/10/22 00:52:39;;;;;;;;;;;14.00;98.70;14.20;99657.00;;;;341418;28;95465;-92
2021/10/22 00:52:51;;;;;;;;;;;14.00;98.60;14.20;99660.00;;;;339462;28;82425;-92
2021/10/22 00:53:03;;;;;;;;;;;14.10;98.70;14.30;99655.00;;;;338641;28;95728;-92
2021/10/22 00:53:15;;;;;;;;;;;14.00;98.70;14.30;99659.00;;;;339598;28;83356;-92
2021/10/22 00:53:27;;;;;;;;;;;14.00;98.60;14.40;99666.00;;;;338862;28;96542;-91
2021/10/22 00:53:39;;;;;;;;;;;14.00;98.50;14.40;99659.00;;;;339480;28;83354;-92
2021/10/22 00:53:51;;;;;;;;;;;14.00;98.40;14.30;99662.00;;;;338808;28;94462;-91
2021/10/22 00:54:06;;;;;;;;;;;14.00;98.70;14.20;99654.00;;;;339539;28;82438;-92
2021/10/22 00:54:18;;;;;;;;;;;14.00;98.40;14.30;99663.00;;;;338692;28;94249;-93
2021/10/22 00:54:30;;;;;;;;;;;14.00;98.40;14.30;99660.00;;;;338176;28;82556;-92
2021/10/22 00:54:42;;;;;;;;;;;14.00;98.40;14.30;99666.00;;;;337246;28;95210;-92
2021/10/22 00:54:57;;;;;;;;;;;14.00;98.30;14.30;99669.00;;;;339420;28;83321;-92
2021/10/22 00:55:11;;;;;;;;;;;14.00;98.40;14.30;99651.00;;;;335964;28;96851;-92
2021/10/22 00:55:23;;;;;;;;;;;14.00;98.40;14.20;99662.00;;;;338205;28;82471;-92
2021/10/22 00:55:35;;;;;;;;;;;14.00;98.50;14.20;99661.00;;;;337366;28;96839;-93
2021/10/22 00:55:47;;;;;;;;;;;14.00;98.60;14.20;99659.00;;;;336742;28;83508;-92
2021/10/22 00:55:59;;;;;;;;;;;14.00;98.60;14.20;99669.00;;;;338762;28;95325;-92
2021/10/22 00:56:11;;;;;;;;;;;14.00;98.60;14.30;99662.00;;;;338073;28;83498;-92
2021/10/22 00:56:22;;;;;;;;;;;14.00;98.50;14.30;99659.00;;;;338744;28;96218;-92
2021/10/22 00:56:34;;;;;;;;;;;14.00;98.50;14.30;99658.00;;;;338166;28;83447;-92
2021/10/22 00:56:48;;;;;;;;;;;14.00;98.50;14.20;99664.00;;;;340093;28;96278;-92
2021/10/22 00:57:01;;;;;;;;;;;14.00;98.60;14.20;99659.00;;;;338054;28;83414;-92
2021/10/22 00:57:13;;;;;;;;;;;14.00;98.70;14.20;99663.00;;;;336035;28;96329;-91
2021/10/22 00:57:25;;;;;;;;;;;14.00;98.70;14.20;99662.00;;;;340801;28;83346;-92
2021/10/22 00:57:39;;;;;;;;;;;13.90;98.60;14.10;99657.00;;;;337320;28;96579;-92
2021/10/22 00:57:51;;;;;;;;;;;14.00;98.60;14.20;99662.00;;;;339976;28;83485;-92
2021/10/22 00:58:03;;;;;;;;;;;13.90;98.60;14.30;99663.00;;;;340070;28;96078;-92
2021/10/22 00:58:15;;;;;;;;;;;13.90;98.60;14.20;99656.00;;;;341462;28;82620;-92
2021/10/22 00:58:26;;;;;;;;;;;14.00;98.60;14.20;99661.00;;;;339969;28;95305;-92
2021/10/22 00:58:41;;;;;;;;;;;14.00;98.60;14.20;99663.00;;;;338163;28;82478;-92
2021/10/22 00:58:52;;;;;;;;;;;13.90;98.60;14.20;99660.00;;;;338608;28;94978;-92
2021/10/22 00:59:06;;;;;;;;;;;14.00;98.70;14.10;99661.00;;;;339476;28;82357;-92
2021/10/22 00:59:17;;;;;;;;;;;13.90;98.70;14.10;99662.00;;;;338631;28;97056;-92
2021/10/22 00:59:29;;;;;;;;;;;13.90;98.70;14.10;99672.00;;;;338099;28;83433;-92
2021/10/22 00:59:42;;;;;;;;;;;14.00;98.70;14.10;99662.00;;;;337338;28;94859;-92
2021/10/22 00:59:53;;;;;;;;;;;13.90;98.70;14.00;99655.00;;;;338161;28;83364;-92
2021/10/22 01:00:06;;;;;;;;;;;14.00;98.80;14.00;99661.00;;;;336191;28;93504;-92
2021/10/22 01:00:18;;;;;;;;;;;13.90;98.80;14.10;99670.00;;;;337991;28;83467;-92
2021/10/22 01:00:30;;;;;;;;;;;13.90;98.90;14.00;99671.00;;;;338598;28;96895;-92